sensor_id;sensor_type;location;lat;lon;timestamp;temperature;humidity
40253;DHT22;25972;51.854;4.534;2023-03-01T00:02:04;0.90;99.90
40253;DHT22;25972;51.854;4.534;2023-03-01T00:04:31;0.90;99.90
40253;DHT22;25972;51.854;4.534;2023-03-01T00:06:57;0.90;99.90
40253;DHT22;25972;51.854;4.534;2023-03-01T00:09:23;0.80;99.90
40253;DHT22;25972;51.854;4.534;2023-03-01T00:11:49;0.80;99.90
40253;DHT22;25972;51.854;4.534;2023-03-01T00:14:15;0.80;99.90
40253;DHT22;25972;51.854;4.534;2023-03-01T00:16:45;0.80;99.90
40253;DHT22;25972;51.854;4.534;2023-03-01T00:19:16;0.80;99.90
40253;DHT22;25972;51.854;4.534;2023-03-01T00:21:43;0.80;99.90
40253;DHT22;25972;51.854;4.534;2023-03-01T00:24:09;0.80;99.90
40253;DHT22;25972;51.854;4.534;2023-03-01T00:26:36;0.80;99.90
40253;DHT22;25972;51.854;4.534;2023-03-01T00:29:02;0.70;99.90
40253;DHT22;25972;51.854;4.534;2023-03-01T00:31:30;0.70;99.90
40253;DHT22;25972;51.854;4.534;2023-03-01T00:34:02;0.70;99.90
40253;DHT22;25972;51.854;4.534;2023-03-01T00:36:34;0.70;99.90
40253;DHT22;25972;51.854;4.534;2023-03-01T00:39:02;0.70;99.90
40253;DHT22;25972;51.854;4.534;2023-03-01T00:41:30;0.60;99.90
40253;DHT22;25972;51.854;4.534;2023-03-01T00:43:56;0.60;99.90
40253;DHT22;25972;51.854;4.534;2023-03-01T00:46:24;0.60;99.90
40253;DHT22;25972;51.854;4.534;2023-03-01T00:48:50;0.60;99.90
40253;DHT22;25972;51.854;4.534;2023-03-01T00:51:17;0.50;99.90
40253;DHT22;25972;51.854;4.534;2023-03-01T00:53:45;0.50;99.90
40253;DHT22;25972;51.854;4.534;2023-03-01T00:56:12;0.40;99.90
40253;DHT22;25972;51.854;4.534;2023-03-01T00:58:39;0.40;99.90
40253;DHT22;25972;51.854;4.534;2023-03-01T01:01:17;0.40;99.90
40253;DHT22;25972;51.854;4.534;2023-03-01T01:06:25;0.30;99.90
40253;DHT22;25972;51.854;4.534;2023-03-01T01:08:52;0.20;99.90
40253;DHT22;25972;51.854;4.534;2023-03-01T01:11:19;0.20;99.90
40253;DHT22;25972;51.854;4.534;2023-03-01T01:13:46;0.20;99.90
40253;DHT22;25972;51.854;4.534;2023-03-01T01:16:12;0.10;99.90
40253;DHT22;25972;51.854;4.534;2023-03-01T01:18:38;0.10;99.90
40253;DHT22;25972;51.854;4.534;2023-03-01T01:21:11;0.10;99.90
40253;DHT22;25972;51.854;4.534;2023-03-01T01:23:38;0.10;99.90
40253;DHT22;25972;51.854;4.534;2023-03-01T01:26:07;0.00;99.90
40253;DHT22;25972;51.854;4.534;2023-03-01T01:28:33;0.00;99.90
40253;DHT22;25972;51.854;4.534;2023-03-01T01:30:59;0.10;99.90
40253;DHT22;25972;51.854;4.534;2023-03-01T01:33:26;0.00;99.90
40253;DHT22;25972;51.854;4.534;2023-03-01T01:35:52;0.10;99.90
40253;DHT22;25972;51.854;4.534;2023-03-01T01:38:18;0.10;99.90
40253;DHT22;25972;51.854;4.534;2023-03-01T01:40:47;0.20;99.90
40253;DHT22;25972;51.854;4.534;2023-03-01T01:43:39;0.10;99.90
40253;DHT22;25972;51.854;4.534;2023-03-01T01:46:25;0.10;99.90
40253;DHT22;25972;51.854;4.534;2023-03-01T01:51:42;0.00;99.90
40253;DHT22;25972;51.854;4.534;2023-03-01T01:54:15;0.10;99.90
40253;DHT22;25972;51.854;4.534;2023-03-01T01:56:45;0.00;99.90
40253;DHT22;25972;51.854;4.534;2023-03-01T01:59:14;0.00;99.90
40253;DHT22;25972;51.854;4.534;2023-03-01T02:01:40;0.00;99.90
40253;DHT22;25972;51.854;4.534;2023-03-01T02:04:06;0.00;99.90
40253;DHT22;25972;51.854;4.534;2023-03-01T02:06:44;0.00;99.90
40253;DHT22;25972;51.854;4.534;2023-03-01T02:09:15;0.00;99.90
40253;DHT22;25972;51.854;4.534;2023-03-01T02:11:43;0.10;99.90
40253;DHT22;25972;51.854;4.534;2023-03-01T02:14:09;0.10;99.90
40253;DHT22;25972;51.854;4.534;2023-03-01T02:16:36;0.10;99.90
40253;DHT22;25972;51.854;4.534;2023-03-01T02:20:03;0.10;99.90
40253;DHT22;25972;51.854;4.534;2023-03-01T02:22:24;0.10;99.90
40253;DHT22;25972;51.854;4.534;2023-03-01T02:28:20;0.10;99.90
40253;DHT22;25972;51.854;4.534;2023-03-01T02:30:48;0.10;99.90
40253;DHT22;25972;51.854;4.534;2023-03-01T02:33:35;0.10;99.90
40253;DHT22;25972;51.854;4.534;2023-03-01T02:36:06;0.10;99.90
40253;DHT22;25972;51.854;4.534;2023-03-01T02:38:33;0.10;99.90
40253;DHT22;25972;51.854;4.534;2023-03-01T02:41:00;0.10;99.90
40253;DHT22;25972;51.854;4.534;2023-03-01T02:43:31;0.10;99.90
40253;DHT22;25972;51.854;4.534;2023-03-01T02:46:03;0.00;99.90
40253;DHT22;25972;51.854;4.534;2023-03-01T02:48:46;0.10;99.90
40253;DHT22;25972;51.854;4.534;2023-03-01T02:51:23;0.00;99.90
40253;DHT22;25972;51.854;4.534;2023-03-01T02:56:17;0.00;99.90
40253;DHT22;25972;51.854;4.534;2023-03-01T02:58:44;0.00;99.90
40253;DHT22;25972;51.854;4.534;2023-03-01T03:01:13;-0.10;99.90
40253;DHT22;25972;51.854;4.534;2023-03-01T03:03:42;-0.10;99.90
40253;DHT22;25972;51.854;4.534;2023-03-01T03:06:08;-0.10;99.90
40253;DHT22;25972;51.854;4.534;2023-03-01T03:08:34;-0.20;99.90
40253;DHT22;25972;51.854;4.534;2023-03-01T03:10:59;-0.20;99.90
40253;DHT22;25972;51.854;4.534;2023-03-01T03:13:25;-0.20;99.90
40253;DHT22;25972;51.854;4.534;2023-03-01T03:15:55;-0.30;99.90
40253;DHT22;25972;51.854;4.534;2023-03-01T03:18:26;-0.30;99.90
40253;DHT22;25972;51.854;4.534;2023-03-01T03:21:00;-0.40;99.90
40253;DHT22;25972;51.854;4.534;2023-03-01T03:23:25;-0.40;99.90
40253;DHT22;25972;51.854;4.534;2023-03-01T03:25:51;-0.50;99.90
40253;DHT22;25972;51.854;4.534;2023-03-01T03:28:17;-0.50;99.90
40253;DHT22;25972;51.854;4.534;2023-03-01T03:30:44;-0.50;99.90
40253;DHT22;25972;51.854;4.534;2023-03-01T03:33:11;-0.50;99.90
40253;DHT22;25972;51.854;4.534;2023-03-01T03:35:46;-0.60;99.90
40253;DHT22;25972;51.854;4.534;2023-03-01T03:38:14;-0.60;99.90
40253;DHT22;25972;51.854;4.534;2023-03-01T03:40:46;-0.60;99.90
40253;DHT22;25972;51.854;4.534;2023-03-01T03:43:14;-0.70;99.90
40253;DHT22;25972;51.854;4.534;2023-03-01T03:45:41;-0.70;99.90
40253;DHT22;25972;51.854;4.534;2023-03-01T03:48:08;-0.80;99.90
40253;DHT22;25972;51.854;4.534;2023-03-01T03:50:35;-0.80;99.90
40253;DHT22;25972;51.854;4.534;2023-03-01T03:53:04;-0.80;99.90
40253;DHT22;25972;51.854;4.534;2023-03-01T03:55:30;-0.80;99.90
40253;DHT22;25972;51.854;4.534;2023-03-01T03:58:01;-0.80;99.90
40253;DHT22;25972;51.854;4.534;2023-03-01T04:00:33;-0.90;99.90
40253;DHT22;25972;51.854;4.534;2023-03-01T04:02:59;-0.90;99.90
40253;DHT22;25972;51.854;4.534;2023-03-01T04:05:26;-0.90;99.90
40253;DHT22;25972;51.854;4.534;2023-03-01T04:07:52;-0.90;99.90
40253;DHT22;25972;51.854;4.534;2023-03-01T04:10:27;-0.90;99.90
40253;DHT22;25972;51.854;4.534;2023-03-01T04:12:54;-1.00;99.90
40253;DHT22;25972;51.854;4.534;2023-03-01T04:15:22;-1.00;99.90
40253;DHT22;25972;51.854;4.534;2023-03-01T04:17:51;-1.00;99.90
40253;DHT22;25972;51.854;4.534;2023-03-01T04:20:26;-1.00;99.90
40253;DHT22;25972;51.854;4.534;2023-03-01T04:22:59;-1.00;99.90
40253;DHT22;25972;51.854;4.534;2023-03-01T04:25:25;-1.10;99.90
40253;DHT22;25972;51.854;4.534;2023-03-01T04:27:51;-1.10;99.90
40253;DHT22;25972;51.854;4.534;2023-03-01T04:30:17;-1.10;99.90
40253;DHT22;25972;51.854;4.534;2023-03-01T04:32:43;-1.10;99.90
40253;DHT22;25972;51.854;4.534;2023-03-01T04:35:09;-1.10;99.90
40253;DHT22;25972;51.854;4.534;2023-03-01T04:37:35;-1.20;99.90
40253;DHT22;25972;51.854;4.534;2023-03-01T04:40:02;-1.10;99.90
40253;DHT22;25972;51.854;4.534;2023-03-01T04:42:38;-1.20;99.90
40253;DHT22;25972;51.854;4.534;2023-03-01T04:45:04;-1.20;99.90
40253;DHT22;25972;51.854;4.534;2023-03-01T04:47:47;-1.20;99.90
40253;DHT22;25972;51.854;4.534;2023-03-01T04:50:17;-1.20;99.90
40253;DHT22;25972;51.854;4.534;2023-03-01T04:52:46;-1.30;99.90
40253;DHT22;25972;51.854;4.534;2023-03-01T04:55:13;-1.30;99.90
40253;DHT22;25972;51.854;4.534;2023-03-01T04:57:39;-1.30;99.90
40253;DHT22;25972;51.854;4.534;2023-03-01T05:00:08;-1.30;99.90
40253;DHT22;25972;51.854;4.534;2023-03-01T05:02:54;-1.30;99.90
40253;DHT22;25972;51.854;4.534;2023-03-01T05:05:23;-1.30;99.90
40253;DHT22;25972;51.854;4.534;2023-03-01T05:07:55;-1.40;99.90
40253;DHT22;25972;51.854;4.534;2023-03-01T05:10:22;-1.30;99.90
40253;DHT22;25972;51.854;4.534;2023-03-01T05:12:48;-1.40;99.90
40253;DHT22;25972;51.854;4.534;2023-03-01T05:15:14;-1.40;99.90
40253;DHT22;25972;51.854;4.534;2023-03-01T05:17:40;-1.40;99.90
40253;DHT22;25972;51.854;4.534;2023-03-01T05:20:06;-1.30;99.90
40253;DHT22;25972;51.854;4.534;2023-03-01T05:22:35;-1.40;99.90
40253;DHT22;25972;51.854;4.534;2023-03-01T05:25:11;-1.40;99.90
40253;DHT22;25972;51.854;4.534;2023-03-01T05:27:45;-1.40;99.90
40253;DHT22;25972;51.854;4.534;2023-03-01T05:30:12;-1.40;99.90
40253;DHT22;25972;51.854;4.534;2023-03-01T05:32:42;-1.50;99.90
40253;DHT22;25972;51.854;4.534;2023-03-01T05:35:16;-1.50;99.90
40253;DHT22;25972;51.854;4.534;2023-03-01T05:38:01;-1.50;99.90
40253;DHT22;25972;51.854;4.534;2023-03-01T05:40:27;-1.40;99.90
40253;DHT22;25972;51.854;4.534;2023-03-01T05:42:56;-1.40;99.90
40253;DHT22;25972;51.854;4.534;2023-03-01T05:45:26;-1.50;99.90
40253;DHT22;25972;51.854;4.534;2023-03-01T05:48:21;-1.50;99.90
40253;DHT22;25972;51.854;4.534;2023-03-01T05:51:24;-1.50;99.90
40253;DHT22;25972;51.854;4.534;2023-03-01T05:54:05;-1.50;99.90
40253;DHT22;25972;51.854;4.534;2023-03-01T05:56:40;-1.50;99.90
40253;DHT22;25972;51.854;4.534;2023-03-01T05:59:06;-1.40;99.90
40253;DHT22;25972;51.854;4.534;2023-03-01T06:01:33;-1.40;99.90
40253;DHT22;25972;51.854;4.534;2023-03-01T06:04:00;-1.40;99.90
40253;DHT22;25972;51.854;4.534;2023-03-01T06:06:25;-1.30;99.90
40253;DHT22;25972;51.854;4.534;2023-03-01T06:08:52;-1.40;99.90
40253;DHT22;25972;51.854;4.534;2023-03-01T06:11:19;-1.40;99.90
40253;DHT22;25972;51.854;4.534;2023-03-01T06:13:45;-1.40;99.90
40253;DHT22;25972;51.854;4.534;2023-03-01T06:16:12;-1.40;99.90
40253;DHT22;25972;51.854;4.534;2023-03-01T06:18:38;-1.50;99.90
40253;DHT22;25972;51.854;4.534;2023-03-01T06:21:05;-1.50;99.90
40253;DHT22;25972;51.854;4.534;2023-03-01T06:23:31;-1.50;99.90
40253;DHT22;25972;51.854;4.534;2023-03-01T06:25:57;-1.50;99.90
40253;DHT22;25972;51.854;4.534;2023-03-01T06:28:23;-1.50;99.90
40253;DHT22;25972;51.854;4.534;2023-03-01T06:30:52;-1.50;99.90
40253;DHT22;25972;51.854;4.534;2023-03-01T06:33:19;-1.50;99.90
40253;DHT22;25972;51.854;4.534;2023-03-01T06:35:50;-1.50;99.90
40253;DHT22;25972;51.854;4.534;2023-03-01T06:38:16;-1.50;99.90
40253;DHT22;25972;51.854;4.534;2023-03-01T06:40:45;-1.50;99.90
40253;DHT22;25972;51.854;4.534;2023-03-01T06:43:16;-1.50;99.90
40253;DHT22;25972;51.854;4.534;2023-03-01T06:45:42;-1.50;99.90
40253;DHT22;25972;51.854;4.534;2023-03-01T06:48:08;-1.50;99.90
40253;DHT22;25972;51.854;4.534;2023-03-01T06:50:35;-1.50;99.90
40253;DHT22;25972;51.854;4.534;2023-03-01T06:53:02;-1.50;99.90
40253;DHT22;25972;51.854;4.534;2023-03-01T06:55:28;-1.50;99.90
40253;DHT22;25972;51.854;4.534;2023-03-01T06:57:59;-1.50;99.90
40253;DHT22;25972;51.854;4.534;2023-03-01T07:00:25;-1.40;99.90
40253;DHT22;25972;51.854;4.534;2023-03-01T07:02:51;-1.40;99.90
40253;DHT22;25972;51.854;4.534;2023-03-01T07:05:17;-1.30;99.90
40253;DHT22;25972;51.854;4.534;2023-03-01T07:07:43;-1.30;99.90
40253;DHT22;25972;51.854;4.534;2023-03-01T07:10:09;-1.30;99.90
40253;DHT22;25972;51.854;4.534;2023-03-01T07:12:36;-1.20;99.90
40253;DHT22;25972;51.854;4.534;2023-03-01T07:15:02;-1.20;99.90
40253;DHT22;25972;51.854;4.534;2023-03-01T07:17:31;-1.20;99.90
40253;DHT22;25972;51.854;4.534;2023-03-01T07:19:57;-1.10;99.90
40253;DHT22;25972;51.854;4.534;2023-03-01T07:22:23;-1.00;99.90
40253;DHT22;25972;51.854;4.534;2023-03-01T07:24:48;-0.90;99.90
40253;DHT22;25972;51.854;4.534;2023-03-01T07:27:14;-0.90;99.90
40253;DHT22;25972;51.854;4.534;2023-03-01T07:29:40;-0.80;99.90
40253;DHT22;25972;51.854;4.534;2023-03-01T07:32:06;-0.70;99.90
40253;DHT22;25972;51.854;4.534;2023-03-01T07:34:32;-0.50;99.90
40253;DHT22;25972;51.854;4.534;2023-03-01T07:36:58;-0.40;99.90
40253;DHT22;25972;51.854;4.534;2023-03-01T07:39:24;-0.30;99.90
40253;DHT22;25972;51.854;4.534;2023-03-01T07:41:50;0.00;99.90
40253;DHT22;25972;51.854;4.534;2023-03-01T07:44:20;0.20;99.90
40253;DHT22;25972;51.854;4.534;2023-03-01T07:46:46;0.40;99.90
40253;DHT22;25972;51.854;4.534;2023-03-01T07:49:12;0.70;99.90
40253;DHT22;25972;51.854;4.534;2023-03-01T07:51:38;1.00;99.90
40253;DHT22;25972;51.854;4.534;2023-03-01T07:54:04;1.20;99.90
40253;DHT22;25972;51.854;4.534;2023-03-01T07:56:30;1.40;99.90
40253;DHT22;25972;51.854;4.534;2023-03-01T07:58:56;1.60;99.90
40253;DHT22;25972;51.854;4.534;2023-03-01T08:01:22;1.80;99.90
40253;DHT22;25972;51.854;4.534;2023-03-01T08:03:48;2.00;99.90
40253;DHT22;25972;51.854;4.534;2023-03-01T08:06:16;2.20;99.90
40253;DHT22;25972;51.854;4.534;2023-03-01T08:08:42;2.40;99.90
40253;DHT22;25972;51.854;4.534;2023-03-01T08:11:10;2.60;99.90
40253;DHT22;25972;51.854;4.534;2023-03-01T08:13:36;2.80;99.90
40253;DHT22;25972;51.854;4.534;2023-03-01T08:16:13;3.00;99.90
40253;DHT22;25972;51.854;4.534;2023-03-01T08:18:40;3.20;99.90
40253;DHT22;25972;51.854;4.534;2023-03-01T08:21:08;3.40;99.90
40253;DHT22;25972;51.854;4.534;2023-03-01T08:23:34;3.50;99.90
40253;DHT22;25972;51.854;4.534;2023-03-01T08:26:20;3.60;99.90
40253;DHT22;25972;51.854;4.534;2023-03-01T08:28:47;3.70;99.90
40253;DHT22;25972;51.854;4.534;2023-03-01T08:31:25;3.80;99.90
40253;DHT22;25972;51.854;4.534;2023-03-01T08:33:56;4.00;99.90
40253;DHT22;25972;51.854;4.534;2023-03-01T08:36:36;4.10;99.90
40253;DHT22;25972;51.854;4.534;2023-03-01T08:39:03;4.20;99.90
40253;DHT22;25972;51.854;4.534;2023-03-01T08:41:29;4.40;99.90
40253;DHT22;25972;51.854;4.534;2023-03-01T08:43:55;4.60;99.90
40253;DHT22;25972;51.854;4.534;2023-03-01T08:46:27;4.70;99.90
40253;DHT22;25972;51.854;4.534;2023-03-01T08:48:54;4.90;99.90
40253;DHT22;25972;51.854;4.534;2023-03-01T08:51:21;5.20;99.90
40253;DHT22;25972;51.854;4.534;2023-03-01T08:53:47;5.30;99.90
40253;DHT22;25972;51.854;4.534;2023-03-01T08:56:13;5.30;99.90
40253;DHT22;25972;51.854;4.534;2023-03-01T08:58:39;5.50;99.90
40253;DHT22;25972;51.854;4.534;2023-03-01T09:01:10;5.70;99.90
40253;DHT22;25972;51.854;4.534;2023-03-01T09:03:36;5.80;99.90
40253;DHT22;25972;51.854;4.534;2023-03-01T09:06:03;5.70;99.90
40253;DHT22;25972;51.854;4.534;2023-03-01T09:08:30;5.80;99.90
40253;DHT22;25972;51.854;4.534;2023-03-01T09:10:56;5.90;99.90
40253;DHT22;25972;51.854;4.534;2023-03-01T09:13:22;6.00;99.90
40253;DHT22;25972;51.854;4.534;2023-03-01T09:15:50;6.20;99.90
40253;DHT22;25972;51.854;4.534;2023-03-01T09:18:16;6.10;99.90
40253;DHT22;25972;51.854;4.534;2023-03-01T09:20:42;6.20;99.90
40253;DHT22;25972;51.854;4.534;2023-03-01T09:23:08;6.30;99.90
40253;DHT22;25972;51.854;4.534;2023-03-01T09:25:34;6.30;99.90
40253;DHT22;25972;51.854;4.534;2023-03-01T09:28:00;6.50;99.90
40253;DHT22;25972;51.854;4.534;2023-03-01T09:30:26;6.50;99.90
40253;DHT22;25972;51.854;4.534;2023-03-01T09:32:52;6.20;99.90
40253;DHT22;25972;51.854;4.534;2023-03-01T09:35:18;6.20;99.90
40253;DHT22;25972;51.854;4.534;2023-03-01T09:37:45;6.20;99.90
40253;DHT22;25972;51.854;4.534;2023-03-01T09:40:17;6.50;99.90
40253;DHT22;25972;51.854;4.534;2023-03-01T09:43:01;6.60;99.90
40253;DHT22;25972;51.854;4.534;2023-03-01T09:45:34;6.70;99.90
40253;DHT22;25972;51.854;4.534;2023-03-01T09:48:02;6.80;99.90
40253;DHT22;25972;51.854;4.534;2023-03-01T09:50:34;6.70;99.90
40253;DHT22;25972;51.854;4.534;2023-03-01T09:53:14;6.60;99.90
40253;DHT22;25972;51.854;4.534;2023-03-01T09:55:50;6.70;99.90
40253;DHT22;25972;51.854;4.534;2023-03-01T10:01:30;6.40;99.90
40253;DHT22;25972;51.854;4.534;2023-03-01T10:09:33;6.00;99.90
40253;DHT22;25972;51.854;4.534;2023-03-01T10:12:01;6.10;99.90
40253;DHT22;25972;51.854;4.534;2023-03-01T10:20:05;5.90;99.90
40253;DHT22;25972;51.854;4.534;2023-03-01T10:22:36;6.00;99.90
40253;DHT22;25972;51.854;4.534;2023-03-01T10:25:03;5.80;99.90
40253;DHT22;25972;51.854;4.534;2023-03-01T10:28:16;5.80;99.90
40253;DHT22;25972;51.854;4.534;2023-03-01T10:30:32;5.70;99.90
40253;DHT22;25972;51.854;4.534;2023-03-01T10:33:00;5.70;99.90
40253;DHT22;25972;51.854;4.534;2023-03-01T10:35:33;5.60;99.90
40253;DHT22;25972;51.854;4.534;2023-03-01T10:38:14;5.50;99.90
40253;DHT22;25972;51.854;4.534;2023-03-01T10:40:59;5.70;99.90
40253;DHT22;25972;51.854;4.534;2023-03-01T10:43:26;5.70;99.90
40253;DHT22;25972;51.854;4.534;2023-03-01T10:45:53;5.60;99.90
40253;DHT22;25972;51.854;4.534;2023-03-01T10:48:21;5.70;99.90
40253;DHT22;25972;51.854;4.534;2023-03-01T10:51:06;5.80;99.90
40253;DHT22;25972;51.854;4.534;2023-03-01T10:53:37;5.70;99.90
40253;DHT22;25972;51.854;4.534;2023-03-01T10:56:09;5.80;99.90
40253;DHT22;25972;51.854;4.534;2023-03-01T10:58:37;5.80;99.90
40253;DHT22;25972;51.854;4.534;2023-03-01T11:03:39;5.80;99.90
40253;DHT22;25972;51.854;4.534;2023-03-01T11:13:58;5.90;99.90
40253;DHT22;25972;51.854;4.534;2023-03-01T11:16:44;5.70;99.90
40253;DHT22;25972;51.854;4.534;2023-03-01T11:22:07;6.00;99.90
40253;DHT22;25972;51.854;4.534;2023-03-01T11:24:46;6.00;99.90
40253;DHT22;25972;51.854;4.534;2023-03-01T11:30:05;5.90;99.90
40253;DHT22;25972;51.854;4.534;2023-03-01T11:35:32;6.00;99.90
40253;DHT22;25972;51.854;4.534;2023-03-01T11:40:39;6.10;99.90
40253;DHT22;25972;51.854;4.534;2023-03-01T11:43:33;6.20;99.90
40253;DHT22;25972;51.854;4.534;2023-03-01T11:48:49;6.60;99.90
40253;DHT22;25972;51.854;4.534;2023-03-01T11:51:36;6.90;99.90
40253;DHT22;25972;51.854;4.534;2023-03-01T11:56:52;7.20;99.90
40253;DHT22;25972;51.854;4.534;2023-03-01T12:02:25;7.50;99.90
40253;DHT22;25972;51.854;4.534;2023-03-01T12:08:07;7.80;99.90
40253;DHT22;25972;51.854;4.534;2023-03-01T12:11:18;7.50;99.30
40253;DHT22;25972;51.854;4.534;2023-03-01T12:16:46;7.20;99.90
40253;DHT22;25972;51.854;4.534;2023-03-01T12:27:46;7.00;99.90
40253;DHT22;25972;51.854;4.534;2023-03-01T12:36:23;6.80;99.90
40253;DHT22;25972;51.854;4.534;2023-03-01T12:38:32;6.60;99.90
40253;DHT22;25972;51.854;4.534;2023-03-01T12:44:28;6.70;99.90
40253;DHT22;25972;51.854;4.534;2023-03-01T12:49:48;6.70;99.90
40253;DHT22;25972;51.854;4.534;2023-03-01T12:54:51;6.80;99.90
40253;DHT22;25972;51.854;4.534;2023-03-01T12:57:39;6.80;99.90
40253;DHT22;25972;51.854;4.534;2023-03-01T13:03:24;6.80;99.90
40253;DHT22;25972;51.854;4.534;2023-03-01T13:09:41;7.00;99.90
40253;DHT22;25972;51.854;4.534;2023-03-01T13:15:25;6.90;99.90
40253;DHT22;25972;51.854;4.534;2023-03-01T13:17:59;6.90;99.90
40253;DHT22;25972;51.854;4.534;2023-03-01T13:20:46;7.00;99.90
40253;DHT22;25972;51.854;4.534;2023-03-01T13:31:07;7.10;99.90
40253;DHT22;25972;51.854;4.534;2023-03-01T13:33:41;7.10;99.90
40253;DHT22;25972;51.854;4.534;2023-03-01T13:36:08;7.20;99.90
40253;DHT22;25972;51.854;4.534;2023-03-01T13:41:04;7.20;99.90
40253;DHT22;25972;51.854;4.534;2023-03-01T13:43:42;7.20;99.90
40253;DHT22;25972;51.854;4.534;2023-03-01T13:46:20;7.30;99.90
40253;DHT22;25972;51.854;4.534;2023-03-01T13:48:50;7.30;99.90
40253;DHT22;25972;51.854;4.534;2023-03-01T13:51:23;7.30;99.90
40253;DHT22;25972;51.854;4.534;2023-03-01T13:53:50;7.30;99.90
40253;DHT22;25972;51.854;4.534;2023-03-01T13:56:17;7.30;99.90
40253;DHT22;25972;51.854;4.534;2023-03-01T13:58:51;7.40;99.90
40253;DHT22;25972;51.854;4.534;2023-03-01T14:03:46;7.40;99.50
40253;DHT22;25972;51.854;4.534;2023-03-01T14:06:14;7.40;99.30
40253;DHT22;25972;51.854;4.534;2023-03-01T14:08:44;7.40;99.60
40253;DHT22;25972;51.854;4.534;2023-03-01T14:19:26;7.70;99.00
40253;DHT22;25972;51.854;4.534;2023-03-01T14:24:51;7.90;97.50
40253;DHT22;25972;51.854;4.534;2023-03-01T14:27:19;8.00;96.30
40253;DHT22;25972;51.854;4.534;2023-03-01T14:29:56;8.20;97.40
40253;DHT22;25972;51.854;4.534;2023-03-01T14:32:25;8.30;96.90
40253;DHT22;25972;51.854;4.534;2023-03-01T14:34:52;8.30;96.80
40253;DHT22;25972;51.854;4.534;2023-03-01T14:39:47;8.40;96.00
40253;DHT22;25972;51.854;4.534;2023-03-01T14:42:14;8.50;96.70
40253;DHT22;25972;51.854;4.534;2023-03-01T14:44:48;8.60;97.00
40253;DHT22;25972;51.854;4.534;2023-03-01T14:47:25;8.60;95.80
40253;DHT22;25972;51.854;4.534;2023-03-01T14:49:58;8.60;96.20
40253;DHT22;25972;51.854;4.534;2023-03-01T14:52:50;8.50;95.70
40253;DHT22;25972;51.854;4.534;2023-03-01T14:55:32;8.50;95.90
40253;DHT22;25972;51.854;4.534;2023-03-01T14:58:03;8.60;96.30
40253;DHT22;25972;51.854;4.534;2023-03-01T15:00:31;8.70;95.90
40253;DHT22;25972;51.854;4.534;2023-03-01T15:03:08;8.70;95.80
40253;DHT22;25972;51.854;4.534;2023-03-01T15:05:39;8.70;96.30
40253;DHT22;25972;51.854;4.534;2023-03-01T15:08:05;8.60;95.90
40253;DHT22;25972;51.854;4.534;2023-03-01T15:10:34;8.70;95.40
40253;DHT22;25972;51.854;4.534;2023-03-01T15:13:30;8.50;95.50
40253;DHT22;25972;51.854;4.534;2023-03-01T15:16:26;8.50;95.10
40253;DHT22;25972;51.854;4.534;2023-03-01T15:19:01;8.40;95.30
40253;DHT22;25972;51.854;4.534;2023-03-01T15:21:32;8.30;95.70
40253;DHT22;25972;51.854;4.534;2023-03-01T15:29:23;8.20;95.90
40253;DHT22;25972;51.854;4.534;2023-03-01T15:32:20;8.30;95.00
40253;DHT22;25972;51.854;4.534;2023-03-01T15:34:47;8.20;94.70
40253;DHT22;25972;51.854;4.534;2023-03-01T15:37:45;8.20;94.70
40253;DHT22;25972;51.854;4.534;2023-03-01T15:40:26;8.10;94.60
40253;DHT22;25972;51.854;4.534;2023-03-01T15:42:59;8.10;94.70
40253;DHT22;25972;51.854;4.534;2023-03-01T15:45:27;8.20;94.80
40253;DHT22;25972;51.854;4.534;2023-03-01T15:47:58;8.20;94.40
40253;DHT22;25972;51.854;4.534;2023-03-01T15:52:59;8.00;94.80
40253;DHT22;25972;51.854;4.534;2023-03-01T15:55:32;8.10;95.00
40253;DHT22;25972;51.854;4.534;2023-03-01T15:58:10;8.00;94.70
40253;DHT22;25972;51.854;4.534;2023-03-01T16:00:37;7.90;94.90
40253;DHT22;25972;51.854;4.534;2023-03-01T16:03:05;7.90;95.20
40253;DHT22;25972;51.854;4.534;2023-03-01T16:05:34;7.90;94.80
40253;DHT22;25972;51.854;4.534;2023-03-01T16:08:03;7.90;95.20
40253;DHT22;25972;51.854;4.534;2023-03-01T16:10:30;7.80;95.30
40253;DHT22;25972;51.854;4.534;2023-03-01T16:12:56;7.70;94.50
40253;DHT22;25972;51.854;4.534;2023-03-01T16:17:50;7.60;94.90
40253;DHT22;25972;51.854;4.534;2023-03-01T16:20:21;7.60;94.90
40253;DHT22;25972;51.854;4.534;2023-03-01T16:22:47;7.50;94.90
40253;DHT22;25972;51.854;4.534;2023-03-01T16:25:17;7.40;94.80
40253;DHT22;25972;51.854;4.534;2023-03-01T16:27:48;7.40;94.90
40253;DHT22;25972;51.854;4.534;2023-03-01T16:30:15;7.30;95.30
40253;DHT22;25972;51.854;4.534;2023-03-01T16:32:43;7.30;95.60
40253;DHT22;25972;51.854;4.534;2023-03-01T16:35:11;7.20;95.80
40253;DHT22;25972;51.854;4.534;2023-03-01T16:37:38;7.20;96.00
40253;DHT22;25972;51.854;4.534;2023-03-01T16:40:05;7.10;96.30
40253;DHT22;25972;51.854;4.534;2023-03-01T16:42:36;7.00;96.50
40253;DHT22;25972;51.854;4.534;2023-03-01T16:45:06;6.90;96.70
40253;DHT22;25972;51.854;4.534;2023-03-01T16:47:33;6.90;96.70
40253;DHT22;25972;51.854;4.534;2023-03-01T16:49:59;6.80;96.90
40253;DHT22;25972;51.854;4.534;2023-03-01T16:52:25;6.80;96.90
40253;DHT22;25972;51.854;4.534;2023-03-01T16:54:51;6.70;96.90
40253;DHT22;25972;51.854;4.534;2023-03-01T16:57:17;6.70;97.00
40253;DHT22;25972;51.854;4.534;2023-03-01T16:59:43;6.60;97.10
40253;DHT22;25972;51.854;4.534;2023-03-01T17:02:13;6.60;97.20
40253;DHT22;25972;51.854;4.534;2023-03-01T17:04:40;6.50;97.30
40253;DHT22;25972;51.854;4.534;2023-03-01T17:07:06;6.50;97.50
40253;DHT22;25972;51.854;4.534;2023-03-01T17:09:36;6.40;97.60
40253;DHT22;25972;51.854;4.534;2023-03-01T17:12:04;6.30;97.70
40253;DHT22;25972;51.854;4.534;2023-03-01T17:14:36;6.30;97.80
40253;DHT22;25972;51.854;4.534;2023-03-01T17:17:03;6.20;97.90
40253;DHT22;25972;51.854;4.534;2023-03-01T17:19:29;6.20;98.00
40253;DHT22;25972;51.854;4.534;2023-03-01T17:22:03;6.10;98.10
40253;DHT22;25972;51.854;4.534;2023-03-01T17:24:35;6.10;98.30
40253;DHT22;25972;51.854;4.534;2023-03-01T17:27:06;6.00;98.40
40253;DHT22;25972;51.854;4.534;2023-03-01T17:29:33;6.00;98.60
40253;DHT22;25972;51.854;4.534;2023-03-01T17:32:01;5.90;98.70
40253;DHT22;25972;51.854;4.534;2023-03-01T17:34:40;5.90;98.90
40253;DHT22;25972;51.854;4.534;2023-03-01T17:37:06;5.80;99.00
40253;DHT22;25972;51.854;4.534;2023-03-01T17:39:32;5.70;99.10
40253;DHT22;25972;51.854;4.534;2023-03-01T17:42:01;5.70;99.10
40253;DHT22;25972;51.854;4.534;2023-03-01T17:44:29;5.60;99.20
40253;DHT22;25972;51.854;4.534;2023-03-01T17:46:55;5.50;99.30
40253;DHT22;25972;51.854;4.534;2023-03-01T17:49:22;5.40;99.40
40253;DHT22;25972;51.854;4.534;2023-03-01T17:51:51;5.40;99.80
40253;DHT22;25972;51.854;4.534;2023-03-01T17:54:16;5.30;99.70
40253;DHT22;25972;51.854;4.534;2023-03-01T17:56:42;5.20;99.90
40253;DHT22;25972;51.854;4.534;2023-03-01T17:59:09;5.20;99.90
40253;DHT22;25972;51.854;4.534;2023-03-01T18:01:35;5.10;99.90
40253;DHT22;25972;51.854;4.534;2023-03-01T18:04:01;5.00;99.90
40253;DHT22;25972;51.854;4.534;2023-03-01T18:06:28;5.00;99.90
40253;DHT22;25972;51.854;4.534;2023-03-01T18:08:54;4.90;99.90
40253;DHT22;25972;51.854;4.534;2023-03-01T18:11:23;4.90;99.90
40253;DHT22;25972;51.854;4.534;2023-03-01T18:13:49;4.80;99.90